sensor_id;sensor_type;location;lat;lon;timestamp;P1;durP1;ratioP1;P2;durP2;ratioP2
52440;SDS011;39611;46.062;8.950;2022-10-16T00:01:28;13.77;;;6.60;;
52440;SDS011;39611;46.062;8.950;2022-10-16T00:03:59;10.73;;;5.97;;
52440;SDS011;39611;46.062;8.950;2022-10-16T00:06:27;11.80;;;6.15;;
52440;SDS011;39611;46.062;8.950;2022-10-16T00:08:54;10.43;;;5.05;;
52440;SDS011;39611;46.062;8.950;2022-10-16T00:11:22;9.18;;;5.10;;
52440;SDS011;39611;46.062;8.950;2022-10-16T00:13:51;11.38;;;5.43;;
52440;SDS011;39611;46.062;8.950;2022-10-16T00:16:21;10.90;;;5.57;;
52440;SDS011;39611;46.062;8.950;2022-10-16T00:18:47;9.60;;;5.90;;
52440;SDS011;39611;46.062;8.950;2022-10-16T00:21:18;9.63;;;5.22;;
52440;SDS011;39611;46.062;8.950;2022-10-16T00:23:49;9.93;;;5.57;;
52440;SDS011;39611;46.062;8.950;2022-10-16T00:26:18;10.90;;;5.57;;
52440;SDS011;39611;46.062;8.950;2022-10-16T00:28:47;14.02;;;5.90;;
52440;SDS011;39611;46.062;8.950;2022-10-16T00:31:15;11.05;;;6.07;;
52440;SDS011;39611;46.062;8.950;2022-10-16T00:33:44;10.88;;;5.65;;
52440;SDS011;39611;46.062;8.950;2022-10-16T00:36:12;11.68;;;5.90;;
52440;SDS011;39611;46.062;8.950;2022-10-16T00:38:40;12.38;;;5.22;;
52440;SDS011;39611;46.062;8.950;2022-10-16T00:41:07;14.15;;;5.63;;
52440;SDS011;39611;46.062;8.950;2022-10-16T00:46:17;21.08;;;8.20;;
52440;SDS011;39611;46.062;8.950;2022-10-16T00:48:48;14.70;;;6.90;;
52440;SDS011;39611;46.062;8.950;2022-10-16T00:51:34;10.95;;;6.00;;
52440;SDS011;39611;46.062;8.950;2022-10-16T00:54:02;13.07;;;6.10;;
52440;SDS011;39611;46.062;8.950;2022-10-16T00:56:32;11.43;;;5.75;;
52440;SDS011;39611;46.062;8.950;2022-10-16T00:59:01;13.98;;;5.95;;
52440;SDS011;39611;46.062;8.950;2022-10-16T01:01:32;15.15;;;6.57;;
52440;SDS011;39611;46.062;8.950;2022-10-16T01:03:59;11.85;;;6.28;;
52440;SDS011;39611;46.062;8.950;2022-10-16T01:06:32;15.00;;;6.35;;
52440;SDS011;39611;46.062;8.950;2022-10-16T01:09:11;14.27;;;6.30;;
52440;SDS011;39611;46.062;8.950;2022-10-16T01:11:55;11.57;;;5.75;;
52440;SDS011;39611;46.062;8.950;2022-10-16T01:17:21;11.38;;;6.00;;
52440;SDS011;39611;46.062;8.950;2022-10-16T01:23:05;13.18;;;6.50;;
52440;SDS011;39611;46.062;8.950;2022-10-16T01:31:33;13.20;;;5.95;;
52440;SDS011;39611;46.062;8.950;2022-10-16T01:34:04;13.18;;;5.78;;
52440;SDS011;39611;46.062;8.950;2022-10-16T01:36:38;12.00;;;5.47;;
52440;SDS011;39611;46.062;8.950;2022-10-16T01:39:10;10.27;;;5.07;;
52440;SDS011;39611;46.062;8.950;2022-10-16T01:41:39;10.32;;;5.50;;
52440;SDS011;39611;46.062;8.950;2022-10-16T01:44:12;14.18;;;5.50;;
52440;SDS011;39611;46.062;8.950;2022-10-16T01:46:46;11.38;;;5.93;;
52440;SDS011;39611;46.062;8.950;2022-10-16T01:49:15;11.13;;;5.13;;
52440;SDS011;39611;46.062;8.950;2022-10-16T01:51:45;11.57;;;5.80;;
52440;SDS011;39611;46.062;8.950;2022-10-16T01:54:16;11.20;;;5.57;;
52440;SDS011;39611;46.062;8.950;2022-10-16T01:56:45;9.15;;;5.13;;
52440;SDS011;39611;46.062;8.950;2022-10-16T01:59:14;9.48;;;5.13;;
52440;SDS011;39611;46.062;8.950;2022-10-16T02:01:45;9.02;;;5.35;;
52440;SDS011;39611;46.062;8.950;2022-10-16T02:04:19;11.88;;;5.72;;
52440;SDS011;39611;46.062;8.950;2022-10-16T02:06:50;9.38;;;5.03;;
52440;SDS011;39611;46.062;8.950;2022-10-16T02:09:17;12.48;;;5.90;;
52440;SDS011;39611;46.062;8.950;2022-10-16T02:11:44;14.18;;;6.53;;
52440;SDS011;39611;46.062;8.950;2022-10-16T02:14:11;11.20;;;6.05;;
52440;SDS011;39611;46.062;8.950;2022-10-16T02:16:39;15.57;;;7.13;;
52440;SDS011;39611;46.062;8.950;2022-10-16T02:19:07;14.45;;;7.32;;
52440;SDS011;39611;46.062;8.950;2022-10-16T02:21:49;13.90;;;6.75;;
52440;SDS011;39611;46.062;8.950;2022-10-16T02:24:34;10.77;;;6.10;;
52440;SDS011;39611;46.062;8.950;2022-10-16T02:27:30;12.32;;;6.43;;
52440;SDS011;39611;46.062;8.950;2022-10-16T02:30:04;11.80;;;6.03;;
52440;SDS011;39611;46.062;8.950;2022-10-16T02:32:35;10.23;;;5.90;;
52440;SDS011;39611;46.062;8.950;2022-10-16T02:35:05;11.35;;;5.95;;
52440;SDS011;39611;46.062;8.950;2022-10-16T02:37:33;11.55;;;5.45;;
52440;SDS011;39611;46.062;8.950;2022-10-16T02:40:02;12.20;;;5.82;;
52440;SDS011;39611;46.062;8.950;2022-10-16T02:42:35;9.80;;;5.32;;
52440;SDS011;39611;46.062;8.950;2022-10-16T02:45:03;11.65;;;6.07;;
52440;SDS011;39611;46.062;8.950;2022-10-16T02:47:31;12.30;;;6.13;;
52440;SDS011;39611;46.062;8.950;2022-10-16T02:49:57;9.98;;;5.20;;
52440;SDS011;39611;46.062;8.950;2022-10-16T02:52:23;11.07;;;6.20;;
52440;SDS011;39611;46.062;8.950;2022-10-16T02:54:51;8.73;;;5.45;;
52440;SDS011;39611;46.062;8.950;2022-10-16T02:57:18;12.32;;;5.65;;
52440;SDS011;39611;46.062;8.950;2022-10-16T02:59:45;11.40;;;5.68;;
52440;SDS011;39611;46.062;8.950;2022-10-16T03:02:11;11.30;;;5.32;;
52440;SDS011;39611;46.062;8.950;2022-10-16T03:04:38;10.05;;;5.05;;
52440;SDS011;39611;46.062;8.950;2022-10-16T03:07:04;9.27;;;4.88;;
52440;SDS011;39611;46.062;8.950;2022-10-16T03:09:31;10.48;;;4.97;;
52440;SDS011;39611;46.062;8.950;2022-10-16T03:11:58;10.43;;;5.03;;
52440;SDS011;39611;46.062;8.950;2022-10-16T03:14:24;11.15;;;5.45;;
52440;SDS011;39611;46.062;8.950;2022-10-16T03:16:51;10.63;;;5.05;;
52440;SDS011;39611;46.062;8.950;2022-10-16T03:19:17;10.75;;;5.28;;
52440;SDS011;39611;46.062;8.950;2022-10-16T03:21:44;9.52;;;5.15;;
52440;SDS011;39611;46.062;8.950;2022-10-16T03:24:11;11.40;;;5.03;;
52440;SDS011;39611;46.062;8.950;2022-10-16T03:26:37;13.77;;;5.35;;
52440;SDS011;39611;46.062;8.950;2022-10-16T03:29:04;8.57;;;5.00;;
52440;SDS011;39611;46.062;8.950;2022-10-16T03:31:31;10.10;;;5.13;;
52440;SDS011;39611;46.062;8.950;2022-10-16T03:33:57;9.40;;;4.68;;
52440;SDS011;39611;46.062;8.950;2022-10-16T03:36:24;9.63;;;4.93;;
52440;SDS011;39611;46.062;8.950;2022-10-16T03:38:50;8.88;;;5.07;;
52440;SDS011;39611;46.062;8.950;2022-10-16T03:41:17;8.35;;;4.57;;
52440;SDS011;39611;46.062;8.950;2022-10-16T03:43:43;13.02;;;5.43;;
52440;SDS011;39611;46.062;8.950;2022-10-16T03:46:09;9.20;;;5.13;;
52440;SDS011;39611;46.062;8.950;2022-10-16T03:48:36;9.27;;;5.32;;
52440;SDS011;39611;46.062;8.950;2022-10-16T03:51:02;9.93;;;5.47;;
52440;SDS011;39611;46.062;8.950;2022-10-16T03:53:29;7.80;;;4.40;;
52440;SDS011;39611;46.062;8.950;2022-10-16T03:55:55;9.25;;;5.28;;
52440;SDS011;39611;46.062;8.950;2022-10-16T03:58:22;10.07;;;5.05;;
52440;SDS011;39611;46.062;8.950;2022-10-16T04:00:48;10.98;;;5.22;;
52440;SDS011;39611;46.062;8.950;2022-10-16T04:03:15;9.05;;;5.07;;
52440;SDS011;39611;46.062;8.950;2022-10-16T04:05:41;11.50;;;5.55;;
52440;SDS011;39611;46.062;8.950;2022-10-16T04:08:08;10.38;;;4.50;;
52440;SDS011;39611;46.062;8.950;2022-10-16T04:10:34;8.98;;;4.72;;
52440;SDS011;39611;46.062;8.950;2022-10-16T04:13:01;12.10;;;5.13;;
52440;SDS011;39611;46.062;8.950;2022-10-16T04:15:27;11.90;;;5.00;;
52440;SDS011;39611;46.062;8.950;2022-10-16T04:17:54;9.43;;;4.85;;
52440;SDS011;39611;46.062;8.950;2022-10-16T04:20:20;9.95;;;4.80;;
52440;SDS011;39611;46.062;8.950;2022-10-16T04:22:46;11.15;;;4.97;;
52440;SDS011;39611;46.062;8.950;2022-10-16T04:25:13;10.88;;;5.50;;
52440;SDS011;39611;46.062;8.950;2022-10-16T04:27:39;9.23;;;4.97;;
52440;SDS011;39611;46.062;8.950;2022-10-16T04:30:11;11.23;;;4.57;;
52440;SDS011;39611;46.062;8.950;2022-10-16T04:32:37;12.68;;;6.22;;
52440;SDS011;39611;46.062;8.950;2022-10-16T04:35:04;19.77;;;7.93;;
52440;SDS011;39611;46.062;8.950;2022-10-16T04:37:30;20.83;;;10.00;;
52440;SDS011;39611;46.062;8.950;2022-10-16T04:39:57;19.05;;;8.10;;
52440;SDS011;39611;46.062;8.950;2022-10-16T04:42:23;19.90;;;7.82;;
52440;SDS011;39611;46.062;8.950;2022-10-16T04:44:50;20.35;;;7.13;;
52440;SDS011;39611;46.062;8.950;2022-10-16T04:47:16;11.88;;;5.97;;
52440;SDS011;39611;46.062;8.950;2022-10-16T04:49:42;12.60;;;5.15;;
52440;SDS011;39611;46.062;8.950;2022-10-16T04:52:09;10.00;;;5.20;;
52440;SDS011;39611;46.062;8.950;2022-10-16T04:54:35;9.25;;;4.35;;
52440;SDS011;39611;46.062;8.950;2022-10-16T04:57:02;8.77;;;4.25;;
52440;SDS011;39611;46.062;8.950;2022-10-16T04:59:28;9.07;;;4.88;;
52440;SDS011;39611;46.062;8.950;2022-10-16T05:01:55;9.05;;;4.63;;
52440;SDS011;39611;46.062;8.950;2022-10-16T05:04:21;9.35;;;4.25;;
52440;SDS011;39611;46.062;8.950;2022-10-16T05:06:48;9.73;;;4.95;;
52440;SDS011;39611;46.062;8.950;2022-10-16T05:09:14;9.55;;;4.50;;
52440;SDS011;39611;46.062;8.950;2022-10-16T05:11:41;12.48;;;4.85;;
52440;SDS011;39611;46.062;8.950;2022-10-16T05:14:07;12.65;;;5.57;;
52440;SDS011;39611;46.062;8.950;2022-10-16T05:16:33;9.68;;;5.18;;
52440;SDS011;39611;46.062;8.950;2022-10-16T05:19:00;8.57;;;4.78;;
52440;SDS011;39611;46.062;8.950;2022-10-16T05:21:46;11.75;;;5.53;;
52440;SDS011;39611;46.062;8.950;2022-10-16T05:24:13;9.50;;;4.75;;
52440;SDS011;39611;46.062;8.950;2022-10-16T05:26:40;9.18;;;4.65;;
52440;SDS011;39611;46.062;8.950;2022-10-16T05:29:06;9.38;;;4.93;;
52440;SDS011;39611;46.062;8.950;2022-10-16T05:31:33;10.07;;;4.82;;
52440;SDS011;39611;46.062;8.950;2022-10-16T05:33:59;12.73;;;5.22;;
52440;SDS011;39611;46.062;8.950;2022-10-16T05:36:26;11.48;;;5.68;;
52440;SDS011;39611;46.062;8.950;2022-10-16T05:38:52;8.93;;;4.90;;
52440;SDS011;39611;46.062;8.950;2022-10-16T05:41:19;12.18;;;5.60;;
52440;SDS011;39611;46.062;8.950;2022-10-16T05:43:48;9.82;;;4.95;;
52440;SDS011;39611;46.062;8.950;2022-10-16T05:46:15;10.98;;;5.43;;
52440;SDS011;39611;46.062;8.950;2022-10-16T05:48:41;9.45;;;5.15;;
52440;SDS011;39611;46.062;8.950;2022-10-16T05:51:09;10.38;;;5.22;;
52440;SDS011;39611;46.062;8.950;2022-10-16T05:53:37;9.10;;;4.78;;
52440;SDS011;39611;46.062;8.950;2022-10-16T05:56:06;11.25;;;5.38;;
52440;SDS011;39611;46.062;8.950;2022-10-16T05:58:35;12.52;;;5.57;;
52440;SDS011;39611;46.062;8.950;2022-10-16T06:01:04;9.77;;;5.25;;
52440;SDS011;39611;46.062;8.950;2022-10-16T06:03:33;7.28;;;4.50;;
52440;SDS011;39611;46.062;8.950;2022-10-16T06:06:06;8.10;;;4.80;;
52440;SDS011;39611;46.062;8.950;2022-10-16T06:08:38;8.13;;;4.78;;
52440;SDS011;39611;46.062;8.950;2022-10-16T06:11:06;9.82;;;4.78;;
52440;SDS011;39611;46.062;8.950;2022-10-16T06:13:34;9.63;;;5.10;;
52440;SDS011;39611;46.062;8.950;2022-10-16T06:16:01;10.65;;;5.22;;
52440;SDS011;39611;46.062;8.950;2022-10-16T06:18:28;10.23;;;5.32;;
52440;SDS011;39611;46.062;8.950;2022-10-16T06:20:55;10.10;;;5.70;;
52440;SDS011;39611;46.062;8.950;2022-10-16T06:23:22;10.00;;;5.72;;
52440;SDS011;39611;46.062;8.950;2022-10-16T06:25:49;12.38;;;5.65;;
52440;SDS011;39611;46.062;8.950;2022-10-16T06:28:16;11.27;;;5.70;;
52440;SDS011;39611;46.062;8.950;2022-10-16T06:30:43;12.80;;;5.60;;
52440;SDS011;39611;46.062;8.950;2022-10-16T06:33:10;11.45;;;5.53;;
52440;SDS011;39611;46.062;8.950;2022-10-16T06:35:36;10.93;;;5.72;;
52440;SDS011;39611;46.062;8.950;2022-10-16T06:38:03;12.05;;;5.10;;
52440;SDS011;39611;46.062;8.950;2022-10-16T06:40:29;10.50;;;5.97;;
52440;SDS011;39611;46.062;8.950;2022-10-16T06:42:56;11.68;;;5.57;;
52440;SDS011;39611;46.062;8.950;2022-10-16T06:45:22;11.70;;;5.90;;
52440;SDS011;39611;46.062;8.950;2022-10-16T06:47:49;10.25;;;5.15;;
52440;SDS011;39611;46.062;8.950;2022-10-16T06:50:15;11.07;;;5.70;;
52440;SDS011;39611;46.062;8.950;2022-10-16T06:52:42;14.82;;;5.60;;
52440;SDS011;39611;46.062;8.950;2022-10-16T06:55:08;10.82;;;5.13;;
52440;SDS011;39611;46.062;8.950;2022-10-16T06:57:35;11.18;;;5.70;;
52440;SDS011;39611;46.062;8.950;2022-10-16T07:00:01;10.00;;;5.32;;
52440;SDS011;39611;46.062;8.950;2022-10-16T07:02:28;10.30;;;5.68;;
52440;SDS011;39611;46.062;8.950;2022-10-16T07:04:55;8.88;;;4.93;;
52440;SDS011;39611;46.062;8.950;2022-10-16T07:07:23;12.68;;;5.63;;
52440;SDS011;39611;46.062;8.950;2022-10-16T07:09:50;11.13;;;5.55;;
52440;SDS011;39611;46.062;8.950;2022-10-16T07:12:17;7.97;;;4.47;;
52440;SDS011;39611;46.062;8.950;2022-10-16T07:14:43;9.98;;;5.20;;
52440;SDS011;39611;46.062;8.950;2022-10-16T07:17:10;9.85;;;5.63;;
52440;SDS011;39611;46.062;8.950;2022-10-16T07:19:36;10.73;;;5.55;;
52440;SDS011;39611;46.062;8.950;2022-10-16T07:22:03;9.98;;;5.40;;
52440;SDS011;39611;46.062;8.950;2022-10-16T07:24:29;14.18;;;6.10;;
52440;SDS011;39611;46.062;8.950;2022-10-16T07:26:56;11.50;;;6.03;;
52440;SDS011;39611;46.062;8.950;2022-10-16T07:29:22;9.15;;;5.18;;
52440;SDS011;39611;46.062;8.950;2022-10-16T07:31:49;11.02;;;5.63;;
52440;SDS011;39611;46.062;8.950;2022-10-16T07:34:16;11.85;;;5.13;;
52440;SDS011;39611;46.062;8.950;2022-10-16T07:36:46;13.40;;;5.60;;
52440;SDS011;39611;46.062;8.950;2022-10-16T07:39:14;9.07;;;4.95;;
52440;SDS011;39611;46.062;8.950;2022-10-16T07:41:40;11.77;;;5.68;;
52440;SDS011;39611;46.062;8.950;2022-10-16T07:44:06;9.45;;;5.18;;
52440;SDS011;39611;46.062;8.950;2022-10-16T07:46:33;12.63;;;5.35;;
52440;SDS011;39611;46.062;8.950;2022-10-16T07:49:02;13.35;;;6.45;;
52440;SDS011;39611;46.062;8.950;2022-10-16T07:51:29;9.45;;;5.13;;
52440;SDS011;39611;46.062;8.950;2022-10-16T07:53:56;10.45;;;6.03;;
52440;SDS011;39611;46.062;8.950;2022-10-16T07:56:22;9.75;;;6.07;;
52440;SDS011;39611;46.062;8.950;2022-10-16T07:58:49;15.27;;;7.50;;
52440;SDS011;39611;46.062;8.950;2022-10-16T08:01:16;16.58;;;7.32;;
52440;SDS011;39611;46.062;8.950;2022-10-16T08:03:44;13.27;;;6.97;;
52440;SDS011;39611;46.062;8.950;2022-10-16T08:06:13;13.98;;;6.72;;
52440;SDS011;39611;46.062;8.950;2022-10-16T08:08:39;9.70;;;5.63;;
52440;SDS011;39611;46.062;8.950;2022-10-16T08:11:06;9.48;;;5.25;;
52440;SDS011;39611;46.062;8.950;2022-10-16T08:13:32;10.63;;;4.97;;
52440;SDS011;39611;46.062;8.950;2022-10-16T08:15:59;10.05;;;4.85;;
52440;SDS011;39611;46.062;8.950;2022-10-16T08:18:26;9.68;;;5.25;;
52440;SDS011;39611;46.062;8.950;2022-10-16T08:20:57;8.73;;;5.18;;
52440;SDS011;39611;46.062;8.950;2022-10-16T08:23:24;9.55;;;5.07;;
52440;SDS011;39611;46.062;8.950;2022-10-16T08:25:53;9.75;;;4.63;;
52440;SDS011;39611;46.062;8.950;2022-10-16T08:28:19;10.45;;;4.93;;
52440;SDS011;39611;46.062;8.950;2022-10-16T08:30:47;9.25;;;5.13;;
52440;SDS011;39611;46.062;8.950;2022-10-16T08:33:13;9.85;;;5.28;;
52440;SDS011;39611;46.062;8.950;2022-10-16T08:35:40;9.63;;;5.00;;
52440;SDS011;39611;46.062;8.950;2022-10-16T08:38:07;8.18;;;4.85;;
52440;SDS011;39611;46.062;8.950;2022-10-16T08:40:34;8.38;;;4.20;;
52440;SDS011;39611;46.062;8.950;2022-10-16T08:48:46;8.95;;;4.72;;
52440;SDS011;39611;46.062;8.950;2022-10-16T08:51:18;9.63;;;5.10;;
52440;SDS011;39611;46.062;8.950;2022-10-16T08:53:55;8.35;;;5.13;;
52440;SDS011;39611;46.062;8.950;2022-10-16T08:56:27;8.52;;;4.90;;
52440;SDS011;39611;46.062;8.950;2022-10-16T08:58:54;10.02;;;4.97;;
52440;SDS011;39611;46.062;8.950;2022-10-16T09:01:38;8.95;;;5.53;;
52440;SDS011;39611;46.062;8.950;2022-10-16T09:04:55;9.90;;;5.28;;
52440;SDS011;39611;46.062;8.950;2022-10-16T09:07:32;8.35;;;4.63;;
52440;SDS011;39611;46.062;8.950;2022-10-16T09:13:22;7.88;;;4.32;;
52440;SDS011;39611;46.062;8.950;2022-10-16T09:21:29;9.02;;;4.90;;
52440;SDS011;39611;46.062;8.950;2022-10-16T09:23:58;9.52;;;4.93;;
52440;SDS011;39611;46.062;8.950;2022-10-16T09:26:30;9.57;;;4.40;;
52440;SDS011;39611;46.062;8.950;2022-10-16T09:28:57;10.38;;;5.15;;
52440;SDS011;39611;46.062;8.950;2022-10-16T09:31:23;11.85;;;4.72;;
52440;SDS011;39611;46.062;8.950;2022-10-16T09:33:52;8.30;;;4.80;;
52440;SDS011;39611;46.062;8.950;2022-10-16T09:36:21;10.73;;;4.90;;
52440;SDS011;39611;46.062;8.950;2022-10-16T09:39:00;10.45;;;5.40;;
52440;SDS011;39611;46.062;8.950;2022-10-16T09:41:33;8.93;;;4.93;;
52440;SDS011;39611;46.062;8.950;2022-10-16T09:44:03;8.52;;;5.40;;
52440;SDS011;39611;46.062;8.950;2022-10-16T09:46:42;10.00;;;4.85;;
52440;SDS011;39611;46.062;8.950;2022-10-16T09:49:25;9.77;;;4.55;;
52440;SDS011;39611;46.062;8.950;2022-10-16T09:52:05;8.27;;;4.97;;
52440;SDS011;39611;46.062;8.950;2022-10-16T09:54:48;7.55;;;3.88;;
52440;SDS011;39611;46.062;8.950;2022-10-16T09:57:15;7.00;;;3.97;;
52440;SDS011;39611;46.062;8.950;2022-10-16T09:59:45;7.45;;;4.35;;
52440;SDS011;39611;46.062;8.950;2022-10-16T10:02:17;10.85;;;5.10;;
52440;SDS011;39611;46.062;8.950;2022-10-16T10:04:49;8.98;;;5.15;;
52440;SDS011;39611;46.062;8.950;2022-10-16T10:07:18;9.20;;;5.45;;
52440;SDS011;39611;46.062;8.950;2022-10-16T10:09:51;9.57;;;5.80;;
52440;SDS011;39611;46.062;8.950;2022-10-16T10:14:55;10.70;;;4.53;;
52440;SDS011;39611;46.062;8.950;2022-10-16T10:17:24;8.82;;;4.60;;
52440;SDS011;39611;46.062;8.950;2022-10-16T10:19:57;8.57;;;5.05;;
52440;SDS011;39611;46.062;8.950;2022-10-16T10:22:30;7.53;;;4.20;;
52440;SDS011;39611;46.062;8.950;2022-10-16T10:30:39;11.57;;;5.10;;
52440;SDS011;39611;46.062;8.950;2022-10-16T10:46:41;10.13;;;5.00;;
52440;SDS011;39611;46.062;8.950;2022-10-16T11:03:31;12.15;;;6.43;;
52440;SDS011;39611;46.062;8.950;2022-10-16T11:06:23;13.68;;;6.28;;
52440;SDS011;39611;46.062;8.950;2022-10-16T11:09:08;13.00;;;6.00;;
52440;SDS011;39611;46.062;8.950;2022-10-16T11:11:40;13.73;;;6.88;;
52440;SDS011;39611;46.062;8.950;2022-10-16T11:19:42;11.90;;;6.32;;
52440;SDS011;39611;46.062;8.950;2022-10-16T11:27:53;11.70;;;6.07;;
52440;SDS011;39611;46.062;8.950;2022-10-16T11:30:25;13.82;;;6.35;;
52440;SDS011;39611;46.062;8.950;2022-10-16T11:35:42;9.48;;;5.47;;
52440;SDS011;39611;46.062;8.950;2022-10-16T11:40:59;14.48;;;6.15;;
52440;SDS011;39611;46.062;8.950;2022-10-16T11:43:43;9.85;;;6.03;;
52440;SDS011;39611;46.062;8.950;2022-10-16T11:46:19;15.25;;;7.22;;
52440;SDS011;39611;46.062;8.950;2022-10-16T11:48:58;14.40;;;6.90;;
52440;SDS011;39611;46.062;8.950;2022-10-16T11:54:56;11.95;;;6.13;;
52440;SDS011;39611;46.062;8.950;2022-10-16T11:57:38;16.98;;;7.18;;
52440;SDS011;39611;46.062;8.950;2022-10-16T12:00:22;12.18;;;6.47;;
52440;SDS011;39611;46.062;8.950;2022-10-16T12:03:39;15.77;;;7.28;;
52440;SDS011;39611;46.062;8.950;2022-10-16T12:08:28;12.88;;;6.82;;
52440;SDS011;39611;46.062;8.950;2022-10-16T12:11:05;15.77;;;7.30;;
52440;SDS011;39611;46.062;8.950;2022-10-16T12:13:50;12.50;;;6.78;;
52440;SDS011;39611;46.062;8.950;2022-10-16T12:16:21;17.00;;;8.50;;
52440;SDS011;39611;46.062;8.950;2022-10-16T12:18:49;14.50;;;7.47;;
52440;SDS011;39611;46.062;8.950;2022-10-16T12:21:35;16.92;;;6.95;;
52440;SDS011;39611;46.062;8.950;2022-10-16T12:24:02;16.08;;;6.78;;
52440;SDS011;39611;46.062;8.950;2022-10-16T12:26:33;13.75;;;6.18;;
52440;SDS011;39611;46.062;8.950;2022-10-16T12:29:14;13.10;;;6.82;;
52440;SDS011;39611;46.062;8.950;2022-10-16T12:36:49;12.38;;;6.47;;
52440;SDS011;39611;46.062;8.950;2022-10-16T12:39:20;13.57;;;6.82;;
52440;SDS011;39611;46.062;8.950;2022-10-16T12:42:00;12.88;;;7.30;;
52440;SDS011;39611;46.062;8.950;2022-10-16T12:44:31;9.95;;;6.28;;
52440;SDS011;39611;46.062;8.950;2022-10-16T12:46:59;7.30;;;5.10;;
52440;SDS011;39611;46.062;8.950;2022-10-16T12:49:36;11.05;;;6.10;;
52440;SDS011;39611;46.062;8.950;2022-10-16T12:52:22;13.25;;;6.15;;
52440;SDS011;39611;46.062;8.950;2022-10-16T12:54:56;14.20;;;6.57;;
52440;SDS011;39611;46.062;8.950;2022-10-16T13:00:21;12.07;;;6.20;;
52440;SDS011;39611;46.062;8.950;2022-10-16T13:09:02;10.30;;;5.57;;
52440;SDS011;39611;46.062;8.950;2022-10-16T13:17:30;9.35;;;5.00;;
52440;SDS011;39611;46.062;8.950;2022-10-16T13:23:06;10.23;;;5.20;;
52440;SDS011;39611;46.062;8.950;2022-10-16T13:28:29;9.88;;;5.60;;
52440;SDS011;39611;46.062;8.950;2022-10-16T13:30:59;9.30;;;5.43;;
52440;SDS011;39611;46.062;8.950;2022-10-16T13:36:05;8.35;;;5.32;;
52440;SDS011;39611;46.062;8.950;2022-10-16T13:38:33;10.00;;;5.70;;
52440;SDS011;39611;46.062;8.950;2022-10-16T13:41:03;13.15;;;5.68;;
52440;SDS011;39611;46.062;8.950;2022-10-16T13:46:10;12.57;;;5.82;;
52440;SDS011;39611;46.062;8.950;2022-10-16T13:48:39;12.35;;;5.95;;
52440;SDS011;39611;46.062;8.950;2022-10-16T13:53:37;12.60;;;5.55;;
52440;SDS011;39611;46.062;8.950;2022-10-16T13:56:05;10.07;;;5.50;;
52440;SDS011;39611;46.062;8.950;2022-10-16T13:58:36;11.85;;;5.75;;
52440;SDS011;39611;46.062;8.950;2022-10-16T14:01:14;12.65;;;5.68;;
52440;SDS011;39611;46.062;8.950;2022-10-16T14:03:44;13.45;;;5.85;;
52440;SDS011;39611;46.062;8.950;2022-10-16T14:06:15;11.55;;;6.07;;
52440;SDS011;39611;46.062;8.950;2022-10-16T14:08:45;13.02;;;5.80;;
52440;SDS011;39611;46.062;8.950;2022-10-16T14:11:20;12.02;;;6.32;;
52440;SDS011;39611;46.062;8.950;2022-10-16T14:13:49;10.65;;;5.85;;
52440;SDS011;39611;46.062;8.950;2022-10-16T14:16:25;13.18;;;5.93;;
52440;SDS011;39611;46.062;8.950;2022-10-16T14:19:04;11.48;;;5.90;;
52440;SDS011;39611;46.062;8.950;2022-10-16T14:21:36;12.63;;;6.32;;
52440;SDS011;39611;46.062;8.950;2022-10-16T14:24:12;10.70;;;6.07;;
52440;SDS011;39611;46.062;8.950;2022-10-16T14:26:41;10.35;;;5.60;;
52440;SDS011;39611;46.062;8.950;2022-10-16T14:29:19;10.95;;;5.07;;
52440;SDS011;39611;46.062;8.950;2022-10-16T14:31:59;10.10;;;5.60;;
52440;SDS011;39611;46.062;8.950;2022-10-16T14:34:34;8.90;;;5.30;;
52440;SDS011;39611;46.062;8.950;2022-10-16T14:37:08;9.15;;;4.93;;
52440;SDS011;39611;46.062;8.950;2022-10-16T14:39:48;10.70;;;5.30;;
52440;SDS011;39611;46.062;8.950;2022-10-16T14:42:16;9.55;;;5.05;;
52440;SDS011;39611;46.062;8.950;2022-10-16T14:44:45;13.82;;;5.50;;
52440;SDS011;39611;46.062;8.950;2022-10-16T14:47:13;10.13;;;4.95;;
52440;SDS011;39611;46.062;8.950;2022-10-16T14:49:48;8.07;;;4.88;;
52440;SDS011;39611;46.062;8.950;2022-10-16T14:52:14;8.90;;;5.25;;
52440;SDS011;39611;46.062;8.950;2022-10-16T14:54:41;15.48;;;6.45;;
52440;SDS011;39611;46.062;8.950;2022-10-16T14:57:18;13.38;;;6.05;;
52440;SDS011;39611;46.062;8.950;2022-10-16T14:59:47;11.60;;;5.65;;
52440;SDS011;39611;46.062;8.950;2022-10-16T15:04:46;8.10;;;5.13;;
52440;SDS011;39611;46.062;8.950;2022-10-16T15:07:14;12.00;;;5.90;;
52440;SDS011;39611;46.062;8.950;2022-10-16T15:09:40;13.07;;;5.65;;
52440;SDS011;39611;46.062;8.950;2022-10-16T15:12:14;11.50;;;5.40;;
52440;SDS011;39611;46.062;8.950;2022-10-16T15:14:41;10.90;;;5.25;;
52440;SDS011;39611;46.062;8.950;2022-10-16T15:17:10;11.60;;;5.45;;
52440;SDS011;39611;46.062;8.950;2022-10-16T15:19:37;11.40;;;5.75;;
52440;SDS011;39611;46.062;8.950;2022-10-16T15:22:04;10.73;;;5.47;;
52440;SDS011;39611;46.062;8.950;2022-10-16T15:24:30;10.80;;;5.97;;
52440;SDS011;39611;46.062;8.950;2022-10-16T15:26:57;12.07;;;5.97;;
52440;SDS011;39611;46.062;8.950;2022-10-16T15:29:23;9.55;;;5.57;;
52440;SDS011;39611;46.062;8.950;2022-10-16T15:31:50;9.52;;;5.90;;
52440;SDS011;39611;46.062;8.950;2022-10-16T15:34:16;11.05;;;5.80;;
52440;SDS011;39611;46.062;8.950;2022-10-16T15:36:45;8.63;;;5.22;;
52440;SDS011;39611;46.062;8.950;2022-10-16T15:39:12;11.93;;;6.18;;
52440;SDS011;39611;46.062;8.950;2022-10-16T15:41:40;12.48;;;5.75;;
52440;SDS011;39611;46.062;8.950;2022-10-16T15:44:07;12.25;;;6.05;;
52440;SDS011;39611;46.062;8.950;2022-10-16T15:46:34;10.30;;;6.43;;
52440;SDS011;39611;46.062;8.950;2022-10-16T15:49:02;12.70;;;6.40;;
52440;SDS011;39611;46.062;8.950;2022-10-16T15:51:31;12.80;;;6.47;;
52440;SDS011;39611;46.062;8.950;2022-10-16T15:53:59;11.73;;;5.47;;
52440;SDS011;39611;46.062;8.950;2022-10-16T15:56:28;12.98;;;5.82;;
52440;SDS011;39611;46.062;8.950;2022-10-16T15:58:55;10.98;;;6.10;;
52440;SDS011;39611;46.062;8.950;2022-10-16T16:01:23;12.70;;;6.60;;
52440;SDS011;39611;46.062;8.950;2022-10-16T16:03:52;11.15;;;5.78;;
52440;SDS011;39611;46.062;8.950;2022-10-16T16:06:20;13.10;;;5.95;;
52440;SDS011;39611;46.062;8.950;2022-10-16T16:08:48;12.35;;;5.88;;
52440;SDS011;39611;46.062;8.950;2022-10-16T16:11:15;17.08;;;7.25;;
52440;SDS011;39611;46.062;8.950;2022-10-16T16:13:42;13.88;;;5.82;;
52440;SDS011;39611;46.062;8.950;2022-10-16T16:16:09;12.40;;;6.22;;
52440;SDS011;39611;46.062;8.950;2022-10-16T16:18:38;13.80;;;6.18;;
52440;SDS011;39611;46.062;8.950;2022-10-16T16:21:06;11.85;;;6.07;;
52440;SDS011;39611;46.062;8.950;2022-10-16T16:23:33;15.02;;;7.22;;
52440;SDS011;39611;46.062;8.950;2022-10-16T16:26:20;251.88;;;95.90;;
52440;SDS011;39611;46.062;8.950;2022-10-16T16:28:55;265.20;;;92.85;;
52440;SDS011;39611;46.062;8.950;2022-10-16T16:31:23;100.68;;;38.35;;
52440;SDS011;39611;46.062;8.950;2022-10-16T16:33:51;42.38;;;16.30;;
52440;SDS011;39611;46.062;8.950;2022-10-16T16:36:17;22.38;;;10.75;;
52440;SDS011;39611;46.062;8.950;2022-10-16T16:38:44;72.28;;;28.55;;
52440;SDS011;39611;46.062;8.950;2022-10-16T16:41:21;66.45;;;27.25;;
52440;SDS011;39611;46.062;8.950;2022-10-16T16:43:49;68.28;;;30.25;;
52440;SDS011;39611;46.062;8.950;2022-10-16T16:46:18;18.45;;;9.57;;
52440;SDS011;39611;46.062;8.950;2022-10-16T16:48:44;15.77;;;7.18;;
52440;SDS011;39611;46.062;8.950;2022-10-16T16:51:15;14.55;;;6.38;;
52440;SDS011;39611;46.062;8.950;2022-10-16T16:53:45;14.30;;;6.47;;
52440;SDS011;39611;46.062;8.950;2022-10-16T16:56:15;14.43;;;7.13;;
52440;SDS011;39611;46.062;8.950;2022-10-16T16:58:43;15.40;;;7.40;;